METAR Data
IDs: Format: Raw Decoded Include TAF

Data at: 1452 UTC 25 Jan 2020

METAR for:KBNW (Boone Muni, IA, US)
Text:KBNW 251435Z AUTO 30010KT 10SM OVC027 M02/M02 A3000 RMK AO2
Temperature: -2.0°C ( 28°F)
Dewpoint: -2.0°C ( 28°F) [RH = 100%]
Pressure (altimeter):30.00 inches Hg (1016.0 mb)
Winds:from the WNW (300 degrees) at 12 MPH (10 knots; 5.1 m/s)
Visibility:10 or more sm (16+ km)
Ceiling:2700 feet AGL
Clouds: overcast cloud deck at 2700 feet AGL
QC Flag:automated observation with no human augmentation